Proctorville, North Carolina
Current Conditions -  °F | °C
As of 6:54 AM on Friday 19 Dec 2014 (Local Time) from KLBT Reporting Station
Clear Clear  
Wind Chill: 31°   Ceiling: Unl
Heat Index: 35°   Visibility: 9mi
Dew Point: 31°   Wind: 5mph
Humidity: 85%   Direction: 20°NNE
Pressure: 30.13"   Gusts: NA
Location:  34.48°N, 79.04°W
Report Text: KLBT 191154Z AUTO 02004KT 9SM CLR 02/M01 A3013 RMK AO2 SLP202 T00171006 10033 20006 53012
Loading
Personal Weather Stations






























Interactive Weather Map New forecast layout! Learn more

10-Day Weather Forecast

Advertisements
Track Severe Weather on mobile